Time;durP1;ratioP1;P1;durP2;ratioP2;P2;SDS_P1;SDS_P2;PMS_P1;PMS_P2;Temp;Humidity;BMP_temperature;BMP_pressure;BME280_temperature;BME280_humidity;BME280_pressure;Samples;Min_cycle;Max_cycle;Signal;HPM_P1;HPM_P2
2023/01/31 00:02:00;;;;;;;6.40;2.40;;;2.50;99.90;;;;;;4830678;29;20081;-80
2023/01/31 00:04:27;;;;;;;5.45;2.75;;;2.50;99.90;;;;;;4835054;29;20046;-79
2023/01/31 00:06:55;;;;;;;4.72;2.38;;;2.60;99.90;;;;;;4843007;29;20122;-79
2023/01/31 00:09:30;;;;;;;5.10;2.60;;;2.60;99.90;;;;;;4839634;29;20053;-79
2023/01/31 00:11:59;;;;;;;5.55;2.22;;;2.70;99.90;;;;;;4848276;29;20047;-79
2023/01/31 00:14:28;;;;;;;4.72;2.10;;;2.50;99.90;;;;;;4830762;29;20073;-79
2023/01/31 00:16:56;;;;;;;5.15;2.55;;;2.40;99.90;;;;;;4825804;29;20499;-79
2023/01/31 00:19:23;;;;;;;6.65;2.70;;;2.30;99.90;;;;;;4825735;29;20121;-79
2023/01/31 00:21:50;;;;;;;9.05;2.88;;;2.20;99.90;;;;;;4828993;29;20507;-79
2023/01/31 00:24:17;;;;;;;6.03;3.25;;;2.30;99.90;;;;;;4826154;29;20058;-79
2023/01/31 00:26:44;;;;;;;9.95;4.88;;;2.30;99.90;;;;;;4851778;29;20046;-79
2023/01/31 00:29:11;;;;;;;7.75;2.45;;;2.20;99.90;;;;;;4823818;29;20034;-79
2023/01/31 00:31:42;;;;;;;4.20;2.28;;;2.20;99.90;;;;;;4806444;29;20046;-79
2023/01/31 00:34:10;;;;;;;6.43;2.97;;;2.20;99.90;;;;;;4840672;29;20046;-79
2023/01/31 00:36:44;;;;;;;6.03;3.10;;;2.40;99.90;;;;;;4841690;29;20064;-79
2023/01/31 00:39:30;;;;;;;5.22;2.80;;;2.90;99.90;;;;;;4938250;23;20024;-80
2023/01/31 00:42:47;;;;;;;5.45;3.05;;;3.20;99.90;;;;;;4917682;29;20040;-80
2023/01/31 00:45:45;;;;;;;5.45;2.88;;;3.00;99.90;;;;;;4900944;29;20176;-80
2023/01/31 00:48:33;;;;;;;6.82;3.25;;;2.90;99.90;;;;;;4900755;29;20044;-80
2023/01/31 00:51:09;;;;;;;6.45;2.92;;;2.80;99.90;;;;;;4897181;29;20037;-80
2023/01/31 00:54:17;;;;;;;5.22;2.38;;;2.80;99.90;;;;;;4899100;29;20040;-80
2023/01/31 00:56:54;;;;;;;6.13;2.63;;;2.80;99.90;;;;;;4835671;29;20042;-80
2023/01/31 00:59:32;;;;;;;5.00;2.03;;;2.80;99.90;;;;;;4828841;29;20049;-80
2023/01/31 01:02:39;;;;;;;3.25;1.67;;;2.70;99.90;;;;;;4842893;29;20192;-80
2023/01/31 01:05:40;;;;;;;4.65;2.15;;;3.10;99.90;;;;;;4839911;29;20038;-80
2023/01/31 01:08:14;;;;;;;4.63;1.50;;;3.10;99.90;;;;;;4829798;29;20114;-80
2023/01/31 01:10:47;;;;;;;10.02;1.20;;;3.30;99.90;;;;;;4822275;29;20071;-80
2023/01/31 01:16:34;;;;;;;4.38;1.85;;;3.20;99.90;;;;;;4925238;29;20073;-78
2023/01/31 01:19:05;;;;;;;4.10;1.38;;;3.10;99.90;;;;;;4908105;29;20101;-79
2023/01/31 01:21:39;;;;;;;7.28;2.20;;;3.00;99.90;;;;;;4909448;29;20508;-78
2023/01/31 01:24:12;;;;;;;2.83;1.55;;;3.10;99.90;;;;;;4923136;29;20412;-79
2023/01/31 01:27:05;;;;;;;4.00;1.17;;;3.20;99.90;;;;;;4916360;29;20120;-79
2023/01/31 01:29:41;;;;;;;3.50;0.75;;;3.20;99.90;;;;;;4907981;29;20052;-79
2023/01/31 01:32:33;;;;;;;2.90;0.73;;;3.30;99.90;;;;;;4869226;29;20041;-79
2023/01/31 01:35:12;;;;;;;2.35;0.85;;;3.70;99.90;;;;;;4884202;29;20037;-78
2023/01/31 01:37:41;;;;;;;2.92;0.75;;;3.50;99.90;;;;;;4886973;29;20086;-78
2023/01/31 01:40:12;;;;;;;2.35;0.63;;;3.60;99.90;;;;;;4863646;29;20039;-77
2023/01/31 01:42:40;;;;;;;4.00;1.45;;;3.50;99.90;;;;;;4854159;29;20728;-78
2023/01/31 01:45:18;;;;;;;2.47;0.77;;;3.40;99.90;;;;;;4909129;29;20053;-78
2023/01/31 01:47:54;;;;;;;13.15;5.78;;;3.40;99.90;;;;;;4875063;29;20045;-78
2023/01/31 01:50:43;;;;;;;;;;;3.40;99.90;;;;;;4881657;29;20080;-78
2023/01/31 01:53:33;;;;;;;5.03;1.65;;;3.40;99.90;;;;;;4866026;29;19931;-78
2023/01/31 01:56:13;;;;;;;4.37;1.60;;;3.50;99.90;;;;;;4868430;29;20180;-78
2023/01/31 01:59:30;;;;;;;10.93;3.08;;;3.50;99.90;;;;;;4880249;29;20078;-79
2023/01/31 02:02:13;;;;;;;5.43;1.65;;;3.50;99.90;;;;;;4864306;29;20065;-79
2023/01/31 02:04:48;;;;;;;4.32;1.88;;;3.70;99.90;;;;;;4867363;29;20116;-79
2023/01/31 02:07:18;;;;;;;2.63;0.80;;;3.70;99.90;;;;;;4884369;29;20056;-79
2023/01/31 02:10:00;;;;;;;2.22;1.30;;;3.50;99.90;;;;;;4878777;29;20052;-79
2023/01/31 02:12:36;;;;;;;1.98;0.60;;;3.50;99.90;;;;;;4899692;29;20053;-79
2023/01/31 02:15:25;;;;;;;3.65;0.90;;;3.60;99.90;;;;;;4899182;29;20045;-79
2023/01/31 02:17:55;;;;;;;2.13;0.52;;;3.50;99.90;;;;;;4852380;29;20072;-79
2023/01/31 02:20:30;;;;;;;3.97;1.10;;;3.40;99.90;;;;;;4853997;29;20088;-79
2023/01/31 02:23:16;;;;;;;3.75;1.20;;;3.50;99.90;;;;;;4833791;29;20050;-79
2023/01/31 02:26:09;;;;;;;10.45;2.55;;;3.60;99.90;;;;;;4840974;29;20052;-79
2023/01/31 02:29:00;;;;;;;5.55;0.55;;;3.40;99.90;;;;;;4846520;29;20072;-79
2023/01/31 02:31:58;;;;;;;2.60;0.70;;;3.40;99.90;;;;;;4865704;29;20045;-79
2023/01/31 02:35:29;;;;;;;4.82;0.68;;;3.40;99.90;;;;;;4794005;29;20062;-79
2023/01/31 02:38:34;;;;;;;3.38;0.60;;;3.50;99.90;;;;;;4810322;29;20055;-79
2023/01/31 02:41:43;;;;;;;3.83;0.60;;;3.70;99.90;;;;;;4807786;29;20115;-79
2023/01/31 02:45:00;;;;;;;3.53;0.70;;;3.60;99.90;;;;;;4813489;29;20115;-79
2023/01/31 02:47:49;;;;;;;2.28;0.70;;;3.70;99.90;;;;;;4810083;29;20038;-79
2023/01/31 02:51:01;;;;;;;;;;;3.60;99.90;;;;;;4769920;30;20623;-79
2023/01/31 02:53:41;;;;;;;3.72;0.70;;;3.50;99.90;;;;;;4771031;30;20409;-79
2023/01/31 02:56:42;;;;;;;3.88;1.02;;;3.40;99.90;;;;;;4805864;29;20062;-78
2023/01/31 02:59:43;;;;;;;2.05;0.82;;;3.50;99.90;;;;;;4799764;29;20098;-79
2023/01/31 03:02:38;;;;;;;26.58;1.20;;;3.60;99.90;;;;;;4809271;29;20055;-79
2023/01/31 03:05:16;;;;;;;3.95;1.02;;;3.60;99.90;;;;;;4778973;29;20055;-79
2023/01/31 03:07:49;;;;;;;3.35;0.88;;;3.60;99.90;;;;;;4804165;29;20082;-79
2023/01/31 03:10:34;;;;;;;;;;;3.50;99.90;;;;;;4854232;29;20068;-79
2023/01/31 03:14:04;;;;;;;2.22;0.20;;;3.40;99.90;;;;;;4852707;29;20415;-79
2023/01/31 03:17:30;;;;;;;3.55;0.60;;;3.40;99.90;;;;;;4805542;29;20057;-79
2023/01/31 03:20:21;;;;;;;3.78;0.55;;;3.40;99.90;;;;;;4792040;29;20068;-79
2023/01/31 03:23:21;;;;;;;2.35;0.55;;;3.30;99.90;;;;;;4812169;29;20059;-78
2023/01/31 03:25:51;;;;;;;4.90;0.70;;;3.80;99.90;;;;;;4796934;29;20102;-79
2023/01/31 03:28:25;;;;;;;2.25;0.30;;;3.40;99.90;;;;;;4799754;29;20088;-79
2023/01/31 03:31:11;;;;;;;6.97;0.68;;;3.50;99.90;;;;;;4807879;29;20186;-79
2023/01/31 03:33:44;;;;;;;3.40;0.70;;;3.40;99.90;;;;;;4811932;29;20055;-79
2023/01/31 03:36:28;;;;;;;5.50;1.10;;;3.30;99.90;;;;;;4792591;29;20046;-79
2023/01/31 03:39:31;;;;;;;4.07;1.10;;;3.30;99.90;;;;;;4809348;29;20055;-79
2023/01/31 03:42:08;;;;;;;4.97;0.70;;;3.50;99.90;;;;;;4804092;29;20058;-79
2023/01/31 03:45:20;;;;;;;6.80;1.02;;;3.50;99.90;;;;;;4822345;29;20569;-79
2023/01/31 03:48:44;;;;;;;3.13;0.60;;;3.40;99.90;;;;;;4841971;29;20118;-79
2023/01/31 03:51:22;;;;;;;3.53;0.50;;;3.40;99.90;;;;;;4802308;29;20080;-79
2023/01/31 03:54:03;;;;;;;2.75;0.40;;;3.50;99.90;;;;;;4825222;29;20057;-79
2023/01/31 03:57:07;;;;;;;1.73;0.30;;;3.50;99.90;;;;;;4808352;29;20062;-79
2023/01/31 04:00:03;;;;;;;3.13;0.40;;;3.40;99.90;;;;;;4721890;30;20060;-79
2023/01/31 04:03:03;;;;;;;2.10;0.50;;;3.50;99.90;;;;;;4695798;30;20395;-78
2023/01/31 04:05:33;;;;;;;4.10;0.65;;;3.60;99.90;;;;;;4695612;30;20098;-79
2023/01/31 04:08:05;;;;;;;1.30;0.50;;;3.40;99.90;;;;;;4673160;30;20503;-79
2023/01/31 04:10:58;;;;;;;3.75;0.85;;;3.50;99.90;;;;;;4697236;30;20057;-79
2023/01/31 04:13:29;;;;;;;1.27;0.22;;;3.50;99.90;;;;;;4673548;30;20072;-79
2023/01/31 04:15:56;;;;;;;2.55;0.40;;;3.40;99.90;;;;;;4686160;30;20046;-79
2023/01/31 04:18:25;;;;;;;4.22;0.60;;;3.40;99.90;;;;;;4683932;30;20230;-79
2023/01/31 04:20:54;;;;;;;2.75;0.50;;;3.40;99.90;;;;;;4681333;30;20058;-79
2023/01/31 04:23:24;;;;;;;1.67;0.60;;;3.40;99.90;;;;;;4670214;30;20526;-80
2023/01/31 04:25:54;;;;;;;3.00;0.20;;;3.30;99.90;;;;;;4719837;30;20045;-79
2023/01/31 04:28:25;;;;;;;2.67;0.43;;;3.20;99.90;;;;;;4725227;30;20713;-79
2023/01/31 04:30:53;;;;;;;3.53;0.57;;;3.10;99.90;;;;;;4725842;29;20035;-79
2023/01/31 04:33:28;;;;;;;1.88;0.20;;;3.20;99.90;;;;;;4819954;29;20050;-80
2023/01/31 04:35:56;;;;;;;4.20;0.50;;;3.20;99.90;;;;;;4843615;29;20326;-79
2023/01/31 04:38:24;;;;;;;1.55;0.40;;;3.10;99.90;;;;;;4881662;29;20046;-79
2023/01/31 04:40:52;;;;;;;5.05;1.67;;;3.20;99.90;;;;;;4866419;29;20049;-78
2023/01/31 04:43:42;;;;;;;2.50;1.00;;;3.20;99.90;;;;;;4877484;29;20033;-79
2023/01/31 04:46:11;;;;;;;4.93;0.80;;;3.20;99.90;;;;;;4836003;29;20060;-79
2023/01/31 04:48:40;;;;;;;2.95;0.47;;;3.20;99.90;;;;;;4865439;29;20144;-79
2023/01/31 04:51:07;;;;;;;4.38;0.47;;;3.10;99.90;;;;;;4843234;29;20049;-79
2023/01/31 04:53:38;;;;;;;9.02;2.63;;;3.10;99.90;;;;;;4836576;29;20041;-78
2023/01/31 04:56:31;;;;;;;7.13;3.17;;;3.00;99.90;;;;;;4852679;29;20044;-78
2023/01/31 04:59:03;;;;;;;2.78;1.27;;;3.40;99.90;;;;;;4858046;29;20057;-79
2023/01/31 05:01:31;;;;;;;3.38;0.98;;;3.20;99.90;;;;;;4864838;29;21665;-78
2023/01/31 05:04:05;;;;;;;7.13;2.95;;;3.20;99.90;;;;;;4868115;29;20042;-78
2023/01/31 05:06:37;;;;;;;11.02;2.00;;;3.30;99.90;;;;;;4829584;29;20129;-78
2023/01/31 05:09:11;;;;;;;;;;;3.20;99.90;;;;;;4855046;29;20552;-79
2023/01/31 05:11:46;;;;;;;25.30;11.70;;;3.20;99.90;;;;;;4863487;29;19924;-79
2023/01/31 05:14:19;;;;;;;5.88;2.15;;;3.30;99.90;;;;;;4866665;29;20080;-79
2023/01/31 05:16:54;;;;;;;1.65;0.65;;;3.30;99.90;;;;;;4830915;29;20053;-79
2023/01/31 05:19:25;;;;;;;19.45;6.72;;;3.20;99.90;;;;;;4871877;29;20113;-79
2023/01/31 05:22:00;;;;;;;12.60;4.80;;;3.40;99.90;;;;;;4880104;29;20056;-78
2023/01/31 05:24:42;;;;;;;9.35;3.58;;;3.40;99.90;;;;;;4883593;29;20069;-79
2023/01/31 05:27:11;;;;;;;8.80;1.42;;;3.40;99.90;;;;;;4910071;29;20064;-78
2023/01/31 05:30:05;;;;;;;21.55;9.30;;;3.30;99.90;;;;;;4930624;29;20050;-79
2023/01/31 05:32:48;;;;;;;30.27;12.80;;;3.30;99.90;;;;;;4873594;29;20533;-79
2023/01/31 05:35:37;;;;;;;14.10;5.70;;;3.00;99.90;;;;;;4874611;29;20034;-79
2023/01/31 05:38:12;;;;;;;26.15;9.05;;;3.00;99.90;;;;;;4850316;29;20065;-79
2023/01/31 05:40:39;;;;;;;12.85;4.70;;;2.90;99.90;;;;;;4857837;29;20052;-79
2023/01/31 05:43:08;;;;;;;16.83;6.78;;;2.80;99.90;;;;;;4861688;29;20067;-79
2023/01/31 05:45:37;;;;;;;7.30;3.83;;;2.80;99.90;;;;;;4857400;29;20118;-79
2023/01/31 05:48:05;;;;;;;4.20;1.67;;;2.70;99.90;;;;;;4865956;29;20076;-79
2023/01/31 05:50:36;;;;;;;12.45;5.30;;;2.80;99.90;;;;;;4840846;29;20045;-78
2023/01/31 05:53:09;;;;;;;7.97;3.38;;;2.70;99.90;;;;;;4862643;29;20051;-79
2023/01/31 05:55:37;;;;;;;10.38;4.18;;;2.70;99.90;;;;;;4850767;29;20225;-78
2023/01/31 05:58:05;;;;;;;10.68;4.32;;;2.70;99.90;;;;;;4831942;29;20417;-79
2023/01/31 06:00:33;;;;;;;18.45;7.25;;;2.50;99.90;;;;;;4843269;29;20080;-78
2023/01/31 06:03:00;;;;;;;21.25;8.10;;;2.50;99.90;;;;;;4841868;29;20507;-78
2023/01/31 06:05:27;;;;;;;18.20;7.05;;;2.60;99.90;;;;;;4877131;29;20049;-79
2023/01/31 06:07:54;;;;;;;16.55;6.60;;;2.60;99.90;;;;;;4890821;29;20334;-78
2023/01/31 06:10:23;;;;;;;16.75;6.60;;;2.50;99.90;;;;;;4871780;29;20036;-78
2023/01/31 06:12:51;;;;;;;10.82;5.03;;;2.60;99.90;;;;;;4886770;29;20091;-79
2023/01/31 06:15:19;;;;;;;9.82;4.40;;;2.60;99.90;;;;;;4918581;29;20398;-79
2023/01/31 06:17:46;;;;;;;6.30;2.00;;;2.70;99.90;;;;;;4891356;29;20035;-78
2023/01/31 06:20:14;;;;;;;4.30;1.80;;;2.90;99.90;;;;;;4914607;29;20104;-78
2023/01/31 06:22:44;;;;;;;3.42;0.47;;;2.80;99.90;;;;;;4896832;29;20051;-79
2023/01/31 06:25:11;;;;;;;5.07;1.80;;;2.80;99.90;;;;;;4892436;29;23927;-78
2023/01/31 06:27:38;;;;;;;3.08;0.95;;;2.80;99.90;;;;;;4905132;29;20051;-78
2023/01/31 06:30:07;;;;;;;7.25;3.00;;;2.80;99.90;;;;;;4905845;29;20407;-78
2023/01/31 06:32:36;;;;;;;9.93;3.67;;;2.80;99.90;;;;;;4907162;29;20056;-78
2023/01/31 06:35:04;;;;;;;19.42;6.82;;;2.90;99.90;;;;;;4912074;29;20396;-78
2023/01/31 06:37:31;;;;;;;16.65;7.00;;;3.00;99.90;;;;;;4890646;29;20048;-78
2023/01/31 06:39:58;;;;;;;8.90;6.00;;;3.00;99.90;;;;;;4892120;29;20052;-78
2023/01/31 06:42:25;;;;;;;5.47;2.33;;;3.00;99.90;;;;;;4889357;29;20075;-79
2023/01/31 06:44:52;;;;;;;1.92;1.25;;;3.00;99.90;;;;;;4897656;29;20074;-78
2023/01/31 06:47:20;;;;;;;5.18;2.10;;;3.00;99.90;;;;;;4907953;29;20063;-78
2023/01/31 06:49:50;;;;;;;8.95;3.47;;;3.10;99.90;;;;;;4890472;29;20143;-78
2023/01/31 06:52:17;;;;;;;8.40;2.17;;;3.20;99.90;;;;;;4912685;29;20047;-78
2023/01/31 06:54:51;;;;;;;5.70;2.50;;;3.20;99.90;;;;;;4895320;29;20044;-78
2023/01/31 06:57:21;;;;;;;19.38;11.45;;;3.30;99.90;;;;;;4917190;29;20090;-78
2023/01/31 06:59:48;;;;;;;25.38;11.43;;;3.30;99.90;;;;;;4901774;29;20635;-79
2023/01/31 07:02:15;;;;;;;33.28;12.00;;;3.20;99.90;;;;;;4904842;29;20064;-78
2023/01/31 07:04:42;;;;;;;30.98;12.60;;;3.20;99.90;;;;;;4890140;29;20040;-79
2023/01/31 07:07:09;;;;;;;35.95;14.00;;;3.20;99.90;;;;;;4901990;29;20055;-78
2023/01/31 07:09:38;;;;;;;29.25;12.13;;;3.30;99.90;;;;;;4919124;29;20039;-78
2023/01/31 07:12:06;;;;;;;11.20;4.22;;;3.40;99.90;;;;;;4904026;29;20039;-78
2023/01/31 07:14:37;;;;;;;55.83;19.88;;;3.40;99.90;;;;;;4899429;29;20381;-78
2023/01/31 07:17:04;;;;;;;92.18;34.00;;;3.40;99.90;;;;;;4929931;29;20044;-79
2023/01/31 07:19:32;;;;;;;11.93;4.70;;;3.60;99.90;;;;;;4897636;29;20050;-79
2023/01/31 07:21:59;;;;;;;51.20;19.85;;;3.60;99.90;;;;;;4896443;29;20043;-77
2023/01/31 07:24:28;;;;;;;37.30;13.52;;;3.60;99.90;;;;;;4925519;29;20068;-78
2023/01/31 07:26:56;;;;;;;12.63;4.68;;;3.70;99.60;;;;;;4904439;29;20059;-79
2023/01/31 07:29:23;;;;;;;3.50;1.10;;;3.70;98.80;;;;;;4902397;29;20048;-78
2023/01/31 07:31:53;;;;;;;5.82;1.55;;;3.80;98.00;;;;;;4917301;29;20051;-78
2023/01/31 07:34:21;;;;;;;3.58;1.17;;;3.90;97.50;;;;;;4899599;29;20046;-78
2023/01/31 07:36:50;;;;;;;19.08;6.82;;;3.90;97.30;;;;;;4872693;29;20044;-78
2023/01/31 07:39:17;;;;;;;9.27;2.05;;;4.00;97.60;;;;;;4894910;29;20047;-78
2023/01/31 07:41:46;;;;;;;6.70;1.77;;;4.00;97.20;;;;;;4901615;29;20150;-78
2023/01/31 07:44:17;;;;;;;5.47;2.38;;;4.00;96.80;;;;;;4923755;29;20051;-79
2023/01/31 07:46:44;;;;;;;6.97;2.35;;;4.10;96.60;;;;;;4916592;29;20040;-79
2023/01/31 07:49:15;;;;;;;6.30;1.67;;;4.20;96.10;;;;;;4919153;29;20040;-79
2023/01/31 07:51:44;;;;;;;4.82;1.50;;;4.20;96.10;;;;;;4915530;29;20040;-78
2023/01/31 07:54:12;;;;;;;9.20;2.55;;;4.20;96.10;;;;;;4913202;29;20075;-78
2023/01/31 07:56:39;;;;;;;3.95;0.90;;;4.30;95.80;;;;;;4899590;29;20044;-78
2023/01/31 07:59:06;;;;;;;10.45;2.78;;;4.30;95.60;;;;;;4900367;29;20044;-79
2023/01/31 08:04:39;;;;;;;5.22;1.08;;;4.40;94.60;;;;;;4909430;29;20123;-78
2023/01/31 08:07:06;;;;;;;5.65;0.85;;;4.50;94.30;;;;;;4918527;29;20039;-79
2023/01/31 08:09:33;;;;;;;2.45;0.20;;;4.50;93.90;;;;;;4893369;29;20052;-79
2023/01/31 08:12:00;;;;;;;8.30;3.42;;;4.50;93.90;;;;;;4893949;29;20040;-78
2023/01/31 08:14:32;;;;;;;9.18;3.10;;;4.50;94.30;;;;;;4865099;29;20055;-79
2023/01/31 08:17:00;;;;;;;9.20;4.28;;;4.50;93.90;;;;;;4913607;29;20051;-79
2023/01/31 08:19:29;;;;;;;9.40;4.60;;;5.80;93.20;;;;;;4921802;29;20036;-79
2023/01/31 08:21:56;;;;;;;12.55;7.55;;;4.60;92.60;;;;;;4913799;29;20048;-79
2023/01/31 08:24:43;;;;;;;12.23;6.03;;;4.70;92.70;;;;;;4914220;29;20491;-79
2023/01/31 08:27:12;;;;;;;11.18;5.45;;;4.70;93.00;;;;;;4882396;29;20063;-79
2023/01/31 08:29:40;;;;;;;9.02;4.75;;;4.70;92.70;;;;;;4876925;29;20540;-79
2023/01/31 08:32:10;;;;;;;5.55;1.77;;;4.70;92.50;;;;;;4884285;29;20645;-79
2023/01/31 08:34:50;;;;;;;4.87;0.67;;;4.80;92.50;;;;;;4854763;29;20045;-78
2023/01/31 08:37:21;;;;;;;6.18;1.17;;;4.80;92.30;;;;;;4835775;29;20049;-79
2023/01/31 08:39:48;;;;;;;5.03;1.60;;;4.80;92.50;;;;;;4848752;29;20063;-79
2023/01/31 08:42:15;;;;;;;6.10;1.92;;;4.70;93.00;;;;;;4836071;29;20057;-78
2023/01/31 08:44:42;;;;;;;3.38;1.50;;;4.80;93.00;;;;;;4838525;29;20050;-79
2023/01/31 08:47:15;;;;;;;3.38;1.02;;;4.90;92.90;;;;;;4838888;29;20062;-79
2023/01/31 08:50:07;;;;;;;2.83;0.52;;;4.90;92.30;;;;;;4805528;29;20059;-79
2023/01/31 08:53:08;;;;;;;1.55;0.63;;;4.90;92.10;;;;;;4810287;29;20047;-79
2023/01/31 08:55:35;;;;;;;3.67;0.55;;;4.90;91.90;;;;;;4825809;29;20481;-79
2023/01/31 08:58:04;;;;;;;5.53;0.57;;;5.00;92.20;;;;;;4833483;29;20050;-78
2023/01/31 09:00:39;;;;;;;3.03;0.73;;;5.10;92.20;;;;;;4845000;29;20060;-79
2023/01/31 09:03:21;;;;;;;2.53;0.57;;;5.00;92.60;;;;;;4844871;29;20045;-79
2023/01/31 09:05:49;;;;;;;2.20;0.45;;;4.90;92.50;;;;;;4861848;29;20561;-79
2023/01/31 09:08:17;;;;;;;3.58;0.60;;;4.80;92.80;;;;;;4886619;29;20044;-79
2023/01/31 09:10:54;;;;;;;6.40;1.52;;;5.00;92.50;;;;;;4889648;29;20051;-79
2023/01/31 09:13:23;;;;;;;2.67;0.60;;;5.00;91.90;;;;;;4890563;29;20628;-79
2023/01/31 09:16:24;;;;;;;7.28;1.67;;;5.10;91.90;;;;;;4869536;29;20493;-79
2023/01/31 09:18:52;;;;;;;3.88;2.15;;;5.10;91.90;;;;;;4843624;29;20416;-79
2023/01/31 09:21:31;;;;;;;5.43;1.65;;;5.10;91.50;;;;;;4853529;29;20145;-79
2023/01/31 09:24:02;;;;;;;4.63;1.90;;;5.10;91.80;;;;;;4868690;29;20061;-79
2023/01/31 09:26:34;;;;;;;7.45;2.28;;;5.10;91.30;;;;;;4875380;29;20050;-79
2023/01/31 09:29:04;;;;;;;11.13;5.13;;;5.20;91.00;;;;;;4867476;29;20104;-77
2023/01/31 09:31:32;;;;;;;15.52;6.40;;;5.20;91.70;;;;;;4845834;29;20041;-79
2023/01/31 09:33:59;;;;;;;5.45;1.13;;;5.30;91.80;;;;;;4847232;29;20045;-79
2023/01/31 09:36:31;;;;;;;9.98;3.13;;;5.30;91.90;;;;;;4870887;29;20057;-78
2023/01/31 09:39:02;;;;;;;2.53;0.67;;;5.70;91.70;;;;;;4851934;29;20117;-79
2023/01/31 09:41:40;;;;;;;9.07;4.43;;;5.40;91.50;;;;;;4860013;29;20300;-78
2023/01/31 09:44:28;;;;;;;5.65;2.38;;;5.40;91.50;;;;;;4841361;29;20132;-79
2023/01/31 09:47:27;;;;;;;4.65;1.83;;;5.40;91.60;;;;;;4849513;29;20041;-79
2023/01/31 09:50:06;;;;;;;7.07;2.05;;;5.40;91.40;;;;;;4884597;29;20060;-78
2023/01/31 09:52:42;;;;;;;2.42;0.50;;;5.50;91.20;;;;;;4896157;29;20127;-79
2023/01/31 09:55:41;;;;;;;3.50;1.25;;;5.50;90.50;;;;;;4862714;29;20053;-78
2023/01/31 09:58:38;;;;;;;2.63;0.82;;;5.50;90.30;;;;;;4885616;29;20069;-78
2023/01/31 10:01:37;;;;;;;5.63;2.50;;;5.70;90.10;;;;;;4895767;29;20050;-78
2023/01/31 10:04:40;;;;;;;3.05;0.70;;;5.60;90.00;;;;;;4884899;29;20048;-79
2023/01/31 10:07:38;;;;;;;4.85;1.38;;;5.50;90.30;;;;;;4888728;29;20055;-79
2023/01/31 10:10:48;;;;;;;1.90;0.32;;;5.60;90.50;;;;;;4864220;29;20097;-79
2023/01/31 10:13:51;;;;;;;5.28;1.17;;;5.70;90.20;;;;;;4835323;29;20408;-79
2023/01/31 10:16:45;;;;;;;7.50;2.83;;;5.60;90.40;;;;;;4815729;29;20057;-79
2023/01/31 10:19:35;;;;;;;4.90;1.77;;;5.60;90.40;;;;;;4870842;29;20109;-79
2023/01/31 10:22:15;;;;;;;10.57;4.80;;;5.60;90.70;;;;;;4849380;29;20054;-79
2023/01/31 10:25:26;;;;;;;8.30;4.57;;;5.70;91.20;;;;;;4847096;29;20056;-79
2023/01/31 10:28:01;;;;;;;19.23;9.80;;;5.80;90.60;;;;;;4871528;29;20080;-80
2023/01/31 10:30:57;;;;;;;9.70;5.70;;;5.80;91.10;;;;;;4862159;29;20045;-79
2023/01/31 10:33:55;;;;;;;5.50;2.90;;;5.90;90.40;;;;;;4860622;29;20113;-79
2023/01/31 10:36:48;;;;;;;7.88;3.33;;;5.80;90.20;;;;;;4873207;29;20295;-78
2023/01/31 10:39:45;;;;;;;6.32;3.53;;;5.80;90.50;;;;;;4849473;29;20041;-80
2023/01/31 10:42:33;;;;;;;7.25;2.15;;;5.80;90.30;;;;;;4842955;29;20078;-79
2023/01/31 10:45:37;;;;;;;3.38;0.75;;;5.80;89.30;;;;;;4846016;29;20053;-80
2023/01/31 10:48:19;;;;;;;1.67;0.40;;;5.60;90.00;;;;;;4785252;29;20053;-79
2023/01/31 10:51:05;;;;;;;4.82;0.70;;;5.50;89.50;;;;;;4802421;29;20059;-78
2023/01/31 10:53:58;;;;;;;1.98;0.43;;;5.40;89.70;;;;;;4805644;29;20058;-79
2023/01/31 10:56:42;;;;;;;6.55;1.10;;;5.70;89.20;;;;;;4830844;29;20079;-79
2023/01/31 10:59:19;;;;;;;3.15;0.43;;;5.90;88.00;;;;;;4855512;29;20057;-79
2023/01/31 11:01:47;;;;;;;2.50;0.90;;;6.00;88.00;;;;;;4865995;29;20829;-79
2023/01/31 11:04:37;;;;;;;4.18;1.58;;;6.00;87.40;;;;;;4872404;29;20044;-79
2023/01/31 11:07:06;;;;;;;4.68;0.80;;;5.70;86.80;;;;;;4893491;29;20047;-78
2023/01/31 11:10:18;;;;;;;4.20;0.50;;;5.50;86.70;;;;;;4895009;29;20044;-79
2023/01/31 11:13:08;;;;;;;4.80;1.60;;;5.70;85.80;;;;;;4850446;29;20445;-80
2023/01/31 11:15:56;;;;;;;4.22;0.70;;;6.10;84.70;;;;;;4847946;29;20469;-78
2023/01/31 11:18:33;;;;;;;3.50;0.60;;;5.60;85.50;;;;;;4803583;29;20054;-79
2023/01/31 11:21:05;;;;;;;1.90;0.52;;;5.90;85.20;;;;;;4832153;29;20057;-79
2023/01/31 11:23:35;;;;;;;3.30;0.57;;;5.80;85.20;;;;;;4834834;29;20061;-79
2023/01/31 11:26:05;;;;;;;2.75;0.70;;;5.90;85.30;;;;;;4819618;29;20054;-79
2023/01/31 11:28:39;;;;;;;1.35;0.30;;;5.80;85.20;;;;;;4814816;29;20490;-79
2023/01/31 11:31:18;;;;;;;2.28;0.40;;;6.00;85.60;;;;;;4826239;29;20049;-79
2023/01/31 11:34:21;;;;;;;5.82;2.00;;;6.10;84.50;;;;;;4817341;29;20050;-79
2023/01/31 11:36:51;;;;;;;5.53;1.70;;;6.20;84.80;;;;;;4799507;29;20046;-79
2023/01/31 11:39:31;;;;;;;4.78;2.17;;;6.20;83.60;;;;;;4803472;29;20053;-79
2023/01/31 11:42:13;;;;;;;3.40;1.48;;;6.20;82.80;;;;;;4805481;29;20058;-79
2023/01/31 11:45:17;;;;;;;4.20;0.57;;;6.20;82.60;;;;;;4790119;29;20043;-79
2023/01/31 11:47:45;;;;;;;;;;;6.20;82.50;;;;;;4745629;29;20076;-78
2023/01/31 11:50:42;;;;;;;7.18;2.53;;;6.10;81.20;;;;;;4813416;29;19925;-79
2023/01/31 11:53:45;;;;;;;4.22;1.50;;;6.20;81.00;;;;;;4808290;29;20141;-80
2023/01/31 11:56:37;;;;;;;3.17;0.60;;;6.20;79.10;;;;;;4840365;29;20265;-79
2023/01/31 11:59:29;;;;;;;2.65;0.30;;;6.30;78.40;;;;;;4814551;29;20042;-80
2023/01/31 12:02:00;;;;;;;3.47;0.35;;;6.40;78.80;;;;;;4817493;29;20046;-79
2023/01/31 12:04:49;;;;;;;1.65;0.25;;;6.50;77.80;;;;;;4823541;29;20061;-79
2023/01/31 12:07:29;;;;;;;1.98;0.20;;;6.50;78.00;;;;;;4830616;29;20056;-79
2023/01/31 12:10:23;;;;;;;3.70;0.55;;;6.50;77.20;;;;;;4825595;29;20965;-80
2023/01/31 12:13:05;;;;;;;0.88;0.30;;;6.40;78.40;;;;;;4818163;29;20173;-79
2023/01/31 12:15:49;;;;;;;3.30;0.30;;;6.40;77.80;;;;;;4839033;29;20090;-80
2023/01/31 12:18:51;;;;;;;3.95;0.90;;;6.30;77.40;;;;;;4822061;29;20051;-80
2023/01/31 12:21:56;;;;;;;1.00;0.20;;;6.20;76.80;;;;;;4833942;29;20052;-79
2023/01/31 12:25:15;;;;;;;3.40;0.52;;;6.30;77.00;;;;;;4842914;29;20061;-79
2023/01/31 12:28:31;;;;;;;6.18;0.30;;;5.90;75.50;;;;;;4822129;29;20034;-79
2023/01/31 12:31:30;;;;;;;1.20;0.40;;;6.20;75.60;;;;;;4912920;29;20116;-79
2023/01/31 12:34:18;;;;;;;4.10;1.92;;;6.20;76.00;;;;;;4923953;29;20456;-79
2023/01/31 12:36:52;;;;;;;1.65;0.22;;;6.10;76.80;;;;;;4893318;29;20044;-79
2023/01/31 12:39:52;;;;;;;7.95;1.60;;;6.20;76.60;;;;;;4918020;29;20054;-79
2023/01/31 12:43:10;;;;;;;1.73;0.47;;;6.20;75.40;;;;;;4923239;29;20051;-78
2023/01/31 12:46:10;;;;;;;5.50;2.47;;;6.30;76.10;;;;;;4881267;29;20081;-79
2023/01/31 12:49:15;;;;;;;2.92;1.17;;;6.30;75.70;;;;;;4867113;29;20076;-80
2023/01/31 12:52:16;;;;;;;1.30;0.30;;;6.40;74.60;;;;;;4798708;29;20042;-80
2023/01/31 12:55:12;;;;;;;1.80;0.30;;;6.30;75.20;;;;;;4823997;29;20050;-79
2023/01/31 12:58:03;;;;;;;4.38;0.80;;;6.30;73.20;;;;;;4809624;29;20224;-79
2023/01/31 13:00:56;;;;;;;1.83;0.65;;;6.30;74.70;;;;;;4800757;29;20075;-80
2023/01/31 13:03:53;;;;;;;3.67;0.35;;;6.30;74.80;;;;;;4877256;29;20051;-79
2023/01/31 13:07:11;;;;;;;3.17;1.33;;;6.20;75.00;;;;;;4882148;29;20339;-79
2023/01/31 13:10:03;;;;;;;7.63;2.17;;;6.10;76.40;;;;;;4860891;29;20052;-78
2023/01/31 13:12:48;;;;;;;10.30;3.40;;;6.10;77.60;;;;;;4854811;29;20050;-79
2023/01/31 13:16:09;;;;;;;1.20;0.38;;;6.00;78.00;;;;;;4849221;29;20577;-79
2023/01/31 13:18:59;;;;;;;9.38;4.85;;;6.70;78.90;;;;;;4914495;29;20526;-79
2023/01/31 13:21:43;;;;;;;43.05;19.75;;;5.90;79.40;;;;;;4918964;29;20051;-79
2023/01/31 13:24:40;;;;;;;5.53;3.00;;;6.00;80.60;;;;;;4936309;29;20048;-79
2023/01/31 13:27:20;;;;;;;8.43;2.95;;;5.90;82.10;;;;;;4911382;29;20076;-80
2023/01/31 13:30:00;;;;;;;4.22;1.13;;;5.90;82.30;;;;;;4916987;29;20043;-79
2023/01/31 13:32:42;;;;;;;9.93;5.00;;;5.40;83.70;;;;;;4915985;29;20036;-79
2023/01/31 13:35:38;;;;;;;15.52;7.63;;;5.80;83.80;;;;;;4923884;29;20055;-79
2023/01/31 13:38:14;;;;;;;4.20;2.00;;;5.70;83.70;;;;;;4907818;29;20044;-79
2023/01/31 13:40:52;;;;;;;5.70;2.45;;;5.70;84.00;;;;;;4916882;29;20519;-79
2023/01/31 13:43:20;;;;;;;6.28;2.50;;;5.70;83.90;;;;;;4908143;29;20048;-79
2023/01/31 13:46:08;;;;;;;14.82;4.28;;;5.60;83.80;;;;;;4935923;29;20037;-79
2023/01/31 13:48:54;;;;;;;7.25;3.47;;;5.60;83.30;;;;;;4933960;29;20044;-80
2023/01/31 13:51:32;;;;;;;8.98;3.25;;;5.60;82.20;;;;;;4914649;29;20075;-79
2023/01/31 13:54:27;;;;;;;6.75;2.20;;;5.70;82.50;;;;;;4904682;29;20051;-78
2023/01/31 13:56:58;;;;;;;9.27;2.35;;;5.80;83.00;;;;;;4833334;29;20079;-79
2023/01/31 13:59:36;;;;;;;6.13;1.88;;;5.70;83.40;;;;;;4921290;29;20091;-80
2023/01/31 14:02:38;;;;;;;9.57;2.33;;;5.80;83.40;;;;;;4923038;29;20063;-80
2023/01/31 14:05:47;;;;;;;2.70;0.93;;;5.80;82.50;;;;;;4855359;29;20048;-79
2023/01/31 14:08:49;;;;;;;2.05;0.85;;;5.80;84.00;;;;;;4862694;29;20059;-80
2023/01/31 14:11:17;;;;;;;17.00;4.88;;;5.70;83.80;;;;;;4854202;29;20529;-80
2023/01/31 14:14:12;;;;;;;6.00;1.30;;;5.70;84.90;;;;;;4875337;29;20054;-80